EDT,Max TemperatureF,Mean TemperatureF,Min TemperatureF,Max Dew PointF,MeanDew PointF,Min DewpointF,Max Humidity, Mean Humidity, Min Humidity, Max Sea Level PressureIn, Mean Sea Level PressureIn, Min Sea Level PressureIn, Max VisibilityMiles, Mean VisibilityMiles, Min VisibilityMiles, Max Wind SpeedMPH, Mean Wind SpeedMPH, Max Gust SpeedMPH,PrecipitationIn, CloudCover, Events, WindDirDegrees
2012-10-1,62,50,37,52,43,34,93,75,48,29.98,29.92,29.86,10,8,0,9,2,,0.00,1,,70
2012-10-2,69,62,55,64,59,48,94,87,72,29.92,29.87,29.82,10,9,2,10,7,,0.26,6,,93
2012-10-3,73,66,60,64,60,54,100,81,60,30.18,30.06,29.91,10,9,2,14,5,20,0.00,4,,212
2012-10-4,71,63,55,57,53,50,94,75,46,30.23,30.18,30.15,10,10,3,14,3,25,0.00,2,,223
2012-10-5,73,65,57,57,54,52,82,71,57,30.15,30.06,29.91,10,10,10,16,7,21,0.00,2,,217
2012-10-6,62,50,39,57,40,30,94,72,44,30.11,29.99,29.86,10,9,3,14,6,24,0.19,5,,284
2012-10-7,46,40,33,39,36,30,93,79,62,30.18,30.11,30.06,10,8,0,12,2,16,0.05,6,,245
2012-10-8,46,37,28,39,33,27,100,84,62,30.27,30.22,30.17,10,5,0,7,2,,0.00,4,,120
2012-10-9,57,44,30,41,36,28,100,75,51,30.21,30.13,30.02,10,7,0,12,3,,0.03,1,,174
2012-10-10,51,46,42,45,37,27,87,71,47,30.16,30.00,29.93,10,10,5,15,8,23,0.02,5,,231
2012-10-11,55,44,32,30,28,27,81,58,36,30.30,30.21,30.14,10,10,5,14,6,20,0.00,1,,225
2012-10-12,51,40,30,37,30,25,81,61,35,30.43,30.30,30.14,10,10,10,12,5,20,0.00,3,,319
2012-10-13,60,43,26,43,32,21,86,60,45,30.43,30.30,30.08,10,10,10,10,6,17,0.00,0,,123
2012-10-14,73,66,59,55,50,45,67,56,46,30.09,29.96,29.73,10,10,10,20,10,29,0.00,4,,196
2012-10-15,69,58,46,57,46,41,88,74,53,29.90,29.79,29.66,10,10,5,22,11,31,0.18,7,,253
2012-10-16,53,46,39,41,38,36,87,71,51,29.99,29.93,29.89,10,10,10,12,5,,0.00,5,,251
2012-10-17,68,52,35,45,39,32,93,64,42,29.94,29.87,29.79,10,10,5,9,4,16,0.00,0,,138
2012-10-18,66,55,42,45,42,37,93,68,46,29.86,29.76,29.69,10,10,0,20,8,30,0.29,3,,139
2012-10-19,62,50,37,46,40,36,100,69,39,29.83,29.72,29.63,10,7,0,22,7,32,0.02,3,,164
2012-10-20,51,48,44,43,39,37,87,74,62,29.94,29.80,29.71,10,10,7,20,11,26,0.05,8,,224
2012-10-21,57,48,39,41,36,34,93,68,44,30.16,30.09,29.94,10,10,10,10,6,18,0.00,2,,252
2012-10-22,69,51,33,48,41,30,93,66,43,30.21,30.16,30.09,10,10,7,10,2,,0.00,1,,200
2012-10-23,75,66,57,52,48,46,77,57,38,30.10,30.08,30.04,10,10,10,20,5,24,0.00,3,,204
2012-10-24,75,64,53,54,50,46,82,63,46,30.17,30.12,30.08,10,10,10,9,4,18,0.00,2,,205
2012-10-25,78,62,46,52,48,45,93,60,32,30.15,30.10,30.04,10,10,5,12,3,21,0.00,0,,145
2012-10-26,73,62,51,54,51,46,88,69,50,30.12,30.08,30.03,10,10,9,12,7,16,0.00,2,,167
2012-10-27,51,48,44,46,45,41,93,87,81,30.06,30.00,29.97,10,8,2,10,5,16,0.16,7,,336
2012-10-28,44,42,41,41,39,37,93,86,81,30.02,29.93,29.85,10,7,3,14,8,20,0.30,8,,2
2012-10-29,41,39,37,39,37,34,93,87,87,29.84,29.60,29.14,10,9,5,18,8,33,1.76,8,,331
2012-10-30,46,42,37,43,38,36,93,86,76,29.38,29.17,28.99,10,8,2,20,10,31,0.40,7,,51
2012-10-31,39,36,33,37,35,30,100,91,87,29.64,29.50,29.37,10,6,1,17,9,24,0.34,8,,230